Time;durP1;ratioP1;P1;durP2;ratioP2;P2;SDS_P1;SDS_P2;PMS_P1;PMS_P2;Temp;Humidity;BMP_temperature;BMP_pressure;BME280_temperature;BME280_humidity;BME280_pressure;Samples;Min_cycle;Max_cycle;Signal;HPM_P1;HPM_P2
2024/01/28 00:00:52;;;;;;;;;;;;;;;-0.17;100.00;97414.81;10438850;28;2946;-65
2024/01/28 00:05:55;;;;;;;;;;;;;;;-0.21;100.00;97418.75;10435965;28;2862;-63
2024/01/28 00:10:57;;;;;;;;;;;;;;;-0.29;100.00;97416.13;10435983;28;2913;-65
2024/01/28 00:16:00;;;;;;;;;;;;;;;-0.32;100.00;97405.88;10438408;28;2874;-63
2024/01/28 00:21:04;;;;;;;;;;;;;;;-0.23;100.00;97404.91;10434481;28;2818;-64
2024/01/28 00:26:07;;;;;;;;;;;;;;;-0.36;100.00;97394.00;10434979;28;2930;-64
2024/01/28 00:31:09;;;;;;;;;;;;;;;-0.42;100.00;97394.66;10446333;28;2870;-64
2024/01/28 00:36:12;;;;;;;;;;;;;;;-0.42;100.00;97390.22;10439681;28;2992;-64
2024/01/28 00:41:15;;;;;;;;;;;;;;;-0.46;100.00;97388.06;10412197;28;2905;-63
2024/01/28 00:46:17;;;;;;;;;;;;;;;-0.49;100.00;97388.41;10415942;28;2953;-63
2024/01/28 00:51:19;;;;;;;;;;;;;;;-0.55;100.00;97377.50;10439354;28;2853;-64
2024/01/28 00:56:22;;;;;;;;;;;;;;;-0.59;100.00;97367.41;10435520;28;2888;-64
2024/01/28 01:01:24;;;;;;;;;;;;;;;-0.51;100.00;97353.38;10433971;28;2925;-66
2024/01/28 01:06:27;;;;;;;;;;;;;;;-0.63;100.00;97359.00;10432517;28;2939;-66
2024/01/28 01:11:30;;;;;;;;;;;;;;;-0.58;100.00;97348.75;10435426;28;2893;-66
2024/01/28 01:16:32;;;;;;;;;;;;;;;-0.57;100.00;97341.69;10431008;28;3149;-63
2024/01/28 01:21:35;;;;;;;;;;;;;;;-0.65;100.00;97352.22;10437379;28;2869;-63
2024/01/28 01:26:37;;;;;;;;;;;;;;;-0.71;100.00;97347.59;10439499;28;2932;-63
2024/01/28 01:31:40;;;;;;;;;;;;;;;-0.77;100.00;97346.44;10435668;28;2868;-65
2024/01/28 01:36:42;;;;;;;;;;;;;;;-0.83;100.00;97340.00;10435034;28;2994;-64
2024/01/28 01:41:44;;;;;;;;;;;;;;;-0.92;100.00;97326.97;10437381;28;2866;-64
2024/01/28 01:46:47;;;;;;;;;;;;;;;-0.97;100.00;97331.91;10438906;28;2879;-67
2024/01/28 01:51:49;;;;;;;;;;;;;;;-1.01;100.00;97328.78;10434129;28;2890;-65
2024/01/28 01:56:52;;;;;;;;;;;;;;;-1.04;100.00;97321.16;10439025;28;2877;-65
2024/01/28 02:01:55;;;;;;;;;;;;;;;-1.04;100.00;97315.88;10437757;28;3009;-64
2024/01/28 02:06:57;;;;;;;;;;;;;;;-1.00;100.00;97306.66;10433615;28;2919;-64
2024/01/28 02:12:00;;;;;;;;;;;;;;;-0.88;100.00;97312.44;10434109;28;2904;-63
2024/01/28 02:17:02;;;;;;;;;;;;;;;-0.96;100.00;97307.16;10429695;28;2993;-63
2024/01/28 02:22:04;;;;;;;;;;;;;;;-0.91;100.00;97300.38;10434320;28;3041;-65
2024/01/28 02:27:07;;;;;;;;;;;;;;;-0.88;100.00;97299.25;10436772;28;2917;-64
2024/01/28 02:32:10;;;;;;;;;;;;;;;-0.94;100.00;97292.00;10428763;28;2930;-64
2024/01/28 02:37:12;;;;;;;;;;;;;;;-0.87;100.00;97295.63;10433388;28;2930;-63
2024/01/28 02:42:15;;;;;;;;;;;;;;;-0.96;100.00;97301.88;10432104;28;2810;-63
2024/01/28 02:47:17;;;;;;;;;;;;;;;-1.00;100.00;97285.53;10434825;28;2860;-64
2024/01/28 02:52:20;;;;;;;;;;;;;;;-1.08;100.00;97282.91;10430727;28;2894;-68
2024/01/28 02:57:22;;;;;;;;;;;;;;;-1.00;100.00;97285.53;10439269;28;2877;-63
2024/01/28 03:02:25;;;;;;;;;;;;;;;-1.05;100.00;97282.56;10438246;28;2929;-64
2024/01/28 03:07:28;;;;;;;;;;;;;;;-1.15;100.00;97281.88;10439390;28;2900;-64
2024/01/28 03:12:30;;;;;;;;;;;;;;;-1.06;100.00;97282.75;10437146;28;2899;-64
2024/01/28 03:17:33;;;;;;;;;;;;;;;-1.11;100.00;97276.13;10431433;28;2933;-63
2024/01/28 03:22:35;;;;;;;;;;;;;;;-1.11;100.00;97283.22;10437604;28;2874;-65
2024/01/28 03:27:38;;;;;;;;;;;;;;;-1.15;100.00;97277.44;10437941;28;2930;-63
2024/01/28 03:32:40;;;;;;;;;;;;;;;-1.22;100.00;97276.44;10437376;28;2895;-63
2024/01/28 03:37:46;;;;;;;;;;;;;;;-1.28;100.00;97277.09;10439179;28;3071;-74
2024/01/28 03:42:49;;;;;;;;;;;;;;;-1.26;100.00;97284.84;10440648;28;2845;-71
2024/01/28 03:47:51;;;;;;;;;;;;;;;-1.35;100.00;97281.34;10441715;28;2821;-73
2024/01/28 03:52:54;;;;;;;;;;;;;;;-1.38;100.00;97277.25;10439861;28;3243;-64
2024/01/28 03:57:57;;;;;;;;;;;;;;;-1.36;100.00;97282.34;10441196;28;2886;-63
2024/01/28 04:03:01;;;;;;;;;;;;;;;-1.33;100.00;97281.22;10447324;28;2952;-64
2024/01/28 04:08:04;;;;;;;;;;;;;;;-1.37;100.00;97283.34;10439566;28;2895;-63
2024/01/28 04:13:06;;;;;;;;;;;;;;;-1.39;100.00;97272.97;10434187;28;2988;-64
2024/01/28 04:18:08;;;;;;;;;;;;;;;-1.42;100.00;97285.63;10435751;28;2946;-63
2024/01/28 04:23:11;;;;;;;;;;;;;;;-1.37;100.00;97283.34;10440600;28;3094;-70
2024/01/28 04:28:14;;;;;;;;;;;;;;;-1.30;100.00;97291.44;10435263;28;2888;-65
2024/01/28 04:33:17;;;;;;;;;;;;;;;-1.36;100.00;97285.00;10448836;28;2961;-65
2024/01/28 04:38:20;;;;;;;;;;;;;;;-1.33;100.00;97282.03;10435232;28;3040;-63
2024/01/28 04:43:22;;;;;;;;;;;;;;;-1.36;100.00;97277.06;10441267;28;2806;-64
2024/01/28 04:48:24;;;;;;;;;;;;;;;-1.40;100.00;97281.00;10435605;28;2806;-63
2024/01/28 04:53:27;;;;;;;;;;;;;;;-1.36;100.00;97277.06;10436551;28;2990;-63
2024/01/28 04:58:29;;;;;;;;;;;;;;;-1.43;100.00;97279.53;10433310;28;2878;-64
2024/01/28 05:03:33;;;;;;;;;;;;;;;-1.42;100.00;97285.63;10434516;28;2835;-64
2024/01/28 05:08:36;;;;;;;;;;;;;;;-1.43;100.00;97284.00;10438823;28;2993;-67
2024/01/28 05:13:38;;;;;;;;;;;;;;;-1.43;100.00;97284.00;10443597;28;2833;-67
2024/01/28 05:18:41;;;;;;;;;;;;;;;-1.41;100.00;97303.09;10442391;28;2846;-74
2024/01/28 05:23:43;;;;;;;;;;;;;;;-1.42;100.00;97294.38;10439635;28;2848;-74
2024/01/28 05:28:46;;;;;;;;;;;;;;;-1.43;100.00;97291.91;10440914;28;3207;-70
2024/01/28 05:33:48;;;;;;;;;;;;;;;-1.43;100.00;97291.91;10438640;28;2862;-66
2024/01/28 05:38:51;;;;;;;;;;;;;;;-1.40;100.00;97295.06;10445938;28;2795;-64
2024/01/28 05:43:53;;;;;;;;;;;;;;;-1.44;100.00;97290.25;10442766;28;2853;-64
2024/01/28 05:48:56;;;;;;;;;;;;;;;-1.41;100.00;97282.00;10435925;28;2994;-64
2024/01/28 05:53:58;;;;;;;;;;;;;;;-1.40;100.00;97292.41;10442612;28;2855;-63
2024/01/28 05:59:01;;;;;;;;;;;;;;;-1.33;100.00;97297.88;10433488;28;2912;-63
2024/01/28 06:04:03;;;;;;;;;;;;;;;-1.43;100.00;97302.44;10440501;28;2941;-64
2024/01/28 06:09:08;;;;;;;;;;;;;;;-1.42;100.00;97307.56;10440401;28;2826;-63
2024/01/28 06:14:11;;;;;;;;;;;;;;;-1.40;100.00;97317.94;10438540;28;2853;-64
2024/01/28 06:19:14;;;;;;;;;;;;;;;-1.40;100.00;97317.94;10436850;28;2957;-64
2024/01/28 06:24:17;;;;;;;;;;;;;;;-1.53;100.00;97314.94;10434560;28;2941;-63
2024/01/28 06:29:19;;;;;;;;;;;;;;;-1.51;100.00;97323.53;10434890;28;2924;-62
2024/01/28 06:34:22;;;;;;;;;;;;;;;-1.48;100.00;97323.19;10425390;28;2852;-64
2024/01/28 06:39:24;;;;;;;;;;;;;;;-1.35;100.00;97323.56;10443161;28;2981;-63
2024/01/28 06:44:27;;;;;;;;;;;;;;;-1.52;100.00;97316.63;10421499;28;2950;-62
2024/01/28 06:49:30;;;;;;;;;;;;;;;-1.50;100.00;97319.91;10443383;28;2821;-64
2024/01/28 06:54:32;;;;;;;;;;;;;;;-1.54;100.00;97318.56;10445877;28;2888;-65
2024/01/28 06:59:35;;;;;;;;;;;;;;;-1.56;100.00;97316.09;10444377;28;2998;-64
2024/01/28 07:04:37;;;;;;;;;;;;;;;-1.57;100.00;97318.91;10440798;28;2822;-64
2024/01/28 07:09:40;;;;;;;;;;;;;;;-1.49;100.00;97321.56;10445373;28;2798;-66
2024/01/28 07:14:42;;;;;;;;;;;;;;;-1.41;100.00;97319.75;10443028;28;3011;-66
2024/01/28 07:19:45;;;;;;;;;;;;;;;-1.36;100.00;97316.66;10443734;28;2823;-63
2024/01/28 07:24:47;;;;;;;;;;;;;;;-1.31;100.00;97317.00;10434466;28;2842;-64
2024/01/28 07:29:50;;;;;;;;;;;;;;;-1.14;100.00;97321.31;10436764;28;2937;-66
2024/01/28 07:34:52;;;;;;;;;;;;;;;-1.19;100.00;97320.97;10438519;28;2868;-66
2024/01/28 07:39:55;;;;;;;;;;;;;;;-1.13;100.00;97312.41;10439115;28;2980;-64
2024/01/28 07:44:57;;;;;;;;;;;;;;;-1.07;100.00;97307.47;10436367;28;2995;-64
2024/01/28 07:50:00;;;;;;;;;;;;;;;-0.91;100.00;97307.47;10421781;28;2859;-65
2024/01/28 07:55:03;;;;;;;;;;;;;;;-0.75;100.00;97304.88;10439363;28;2900;-64
2024/01/28 08:00:05;;;;;;;;;;;;;;;-0.69;100.00;97296.28;10442623;28;2853;-64
2024/01/28 08:05:08;;;;;;;;;;;;;;;-0.53;100.00;97310.47;10442624;28;2790;-65
2024/01/28 08:10:11;;;;;;;;;;;;;;;-0.39;100.00;97307.97;10434903;28;2936;-63
2024/01/28 08:15:13;;;;;;;;;;;;;;;-0.29;100.00;97300.69;10423970;28;2907;-64
2024/01/28 08:20:16;;;;;;;;;;;;;;;-0.12;100.00;97292.75;10441063;28;2917;-65
2024/01/28 08:25:19;;;;;;;;;;;;;;;0.10;100.00;97289.34;10437022;28;2818;-63
2024/01/28 08:30:23;;;;;;;;;;;;;;;0.38;100.00;97287.09;10429489;28;2846;-64
2024/01/28 08:35:26;;;;;;;;;;;;;;;0.49;100.00;97281.41;10427112;28;2923;-64
2024/01/28 08:40:28;;;;;;;;;;;;;;;0.72;100.00;97278.81;10429124;28;2875;-64
2024/01/28 08:45:31;;;;;;;;;;;;;;;0.95;100.00;97278.81;10432627;28;2840;-63
2024/01/28 08:50:34;;;;;;;;;;;;;;;1.26;100.00;97264.69;10437943;28;2841;-63
2024/01/28 08:55:36;;;;;;;;;;;;;;;1.48;100.00;97263.81;10436648;28;2865;-63
2024/01/28 09:00:39;;;;;;;;;;;;;;;1.58;100.00;97263.56;10433375;28;2897;-61
2024/01/28 09:05:42;;;;;;;;;;;;;;;1.75;100.00;97258.94;10413187;28;2957;-64
2024/01/28 09:10:44;;;;;;;;;;;;;;;1.90;100.00;97263.22;10414253;28;2907;-63
2024/01/28 09:15:47;;;;;;;;;;;;;;;1.96;100.00;97256.38;10435215;28;2874;-65
2024/01/28 09:20:50;;;;;;;;;;;;;;;2.00;100.00;97251.53;10427181;28;2822;-68
2024/01/28 09:25:53;;;;;;;;;;;;;;;2.21;100.00;97258.72;10436000;28;2935;-67
2024/01/28 09:30:56;;;;;;;;;;;;;;;2.32;100.00;97258.28;10428393;28;2903;-66
2024/01/28 09:35:59;;;;;;;;;;;;;;;2.41;100.00;97251.84;10436223;28;2881;-66
2024/01/28 09:41:01;;;;;;;;;;;;;;;2.53;100.00;97250.34;10430051;28;3120;-67
2024/01/28 09:46:04;;;;;;;;;;;;;;;2.64;100.00;97254.38;10430023;28;2865;-65
2024/01/28 09:51:06;;;;;;;;;;;;;;;2.79;100.00;97249.00;10414242;28;2868;-70
2024/01/28 09:56:13;;;;;;;;;;;;;;;3.00;100.00;97251.69;10429682;28;2915;-65
2024/01/28 10:01:16;;;;;;;;;;;;;;;3.20;100.00;97247.38;10430719;28;2929;-74
2024/01/28 10:06:19;;;;;;;;;;;;;;;3.55;100.00;97241.31;10437493;28;2901;-66
2024/01/28 10:11:22;;;;;;;;;;;;;;;3.69;100.00;97238.56;10441188;28;2967;-68
2024/01/28 10:16:24;;;;;;;;;;;;;;;3.78;100.00;97234.72;10445522;28;2961;-67
2024/01/28 10:21:27;;;;;;;;;;;;;;;3.92;100.00;97232.16;10424479;28;2883;-66
2024/01/28 10:26:30;;;;;;;;;;;;;;;4.13;100.00;97239.22;10440275;28;2897;-67
2024/01/28 10:31:33;;;;;;;;;;;;;;;4.21;100.00;97234.56;10443641;28;2918;-68
2024/01/28 10:36:39;;;;;;;;;;;;;;;4.46;100.00;97223.41;10441191;28;3097;-66
2024/01/28 10:41:42;;;;;;;;;;;;;;;4.64;100.00;97230.81;10436790;28;2876;-64
2024/01/28 10:46:45;;;;;;;;;;;;;;;4.86;100.00;97219.81;10438446;28;2906;-64
2024/01/28 10:51:51;;;;;;;;;;;;;;;5.00;100.00;97209.19;10446968;28;2983;-64
2024/01/28 10:56:54;;;;;;;;;;;;;;;5.18;100.00;97203.25;10441511;28;2845;-63
2024/01/28 11:01:56;;;;;;;;;;;;;;;5.30;100.00;97194.44;10436688;28;2909;-64
2024/01/28 11:06:59;;;;;;;;;;;;;;;5.48;100.00;97180.50;10437730;28;2862;-67
2024/01/28 11:12:02;;;;;;;;;;;;;;;5.77;100.00;97184.53;10434800;28;2824;-74
2024/01/28 11:17:05;;;;;;;;;;;;;;;5.87;100.00;97174.25;10440883;28;2905;-73
2024/01/28 11:22:07;;;;;;;;;;;;;;;5.92;100.00;97179.00;10439573;28;2877;-64
2024/01/28 11:27:10;;;;;;;;;;;;;;;6.13;100.00;97160.03;10447015;28;2869;-66
2024/01/28 11:32:12;;;;;;;;;;;;;;;6.20;100.00;97162.69;10439754;28;2876;-67
2024/01/28 11:37:16;;;;;;;;;;;;;;;6.21;100.00;97148.28;10445343;28;3007;-65
2024/01/28 11:42:22;;;;;;;;;;;;;;;6.26;100.00;97150.34;10442681;28;3203;-74
2024/01/28 11:47:25;;;;;;;;;;;;;;;6.43;100.00;97141.63;10437700;28;3016;-65
2024/01/28 11:52:28;;;;;;;;;;;;;;;6.38;100.00;97138.78;10437808;28;2834;-67
2024/01/28 11:57:30;;;;;;;;;;;;;;;6.24;100.00;97126.53;10436472;28;2894;-65
2024/01/28 12:02:33;;;;;;;;;;;;;;;6.32;100.00;97123.59;10437465;28;2858;-64
2024/01/28 12:07:35;;;;;;;;;;;;;;;6.38;100.00;97122.75;10440131;28;2771;-65
2024/01/28 12:12:38;;;;;;;;;;;;;;;6.49;100.00;97108.72;10439137;28;2928;-65
2024/01/28 12:17:42;;;;;;;;;;;;;;;6.48;100.00;97106.25;10437600;28;2929;-65
2024/01/28 12:22:44;;;;;;;;;;;;;;;6.45;100.00;97104.81;10436838;28;2885;-63
2024/01/28 12:27:47;;;;;;;;;;;;;;;6.45;100.00;97098.66;10437891;28;2870;-66
2024/01/28 12:32:49;;;;;;;;;;;;;;;6.60;100.00;97085.81;10435054;28;2814;-64
2024/01/28 12:37:52;;;;;;;;;;;;;;;6.73;100.00;97076.88;10439552;28;2975;-64
2024/01/28 12:42:55;;;;;;;;;;;;;;;6.75;100.00;97069.50;10440539;28;2789;-64
2024/01/28 12:47:58;;;;;;;;;;;;;;;6.82;100.00;97067.59;10424340;28;2946;-66
2024/01/28 12:53:00;;;;;;;;;;;;;;;7.01;100.00;97058.56;10436751;28;2846;-63
2024/01/28 12:58:03;;;;;;;;;;;;;;;7.10;100.00;97055.63;10439862;28;2864;-64
2024/01/28 13:03:05;;;;;;;;;;;;;;;7.03;100.00;97051.13;10440405;28;2994;-65
2024/01/28 13:08:08;;;;;;;;;;;;;;;7.09;100.00;97049.44;10439194;28;2806;-64
2024/01/28 13:13:11;;;;;;;;;;;;;;;7.13;100.00;97047.97;10437434;28;3559;-65
2024/01/28 13:18:13;;;;;;;;;;;;;;;7.19;99.08;97051.59;10444526;28;2849;-67
2024/01/28 13:23:34;;;;;;;;;;;;;;;7.22;91.95;97051.19;10439825;28;2886;-65
2024/01/28 13:28:37;;;;;;;;;;;;;;;7.27;91.22;97036.09;10435960;28;2842;-66
2024/01/28 13:33:39;;;;;;;;;;;;;;;7.43;94.07;97039.22;10436923;28;2891;-69
2024/01/28 13:38:42;;;;;;;;;;;;;;;7.43;87.98;97028.53;10451182;28;2810;-68
2024/01/28 13:43:44;;;;;;;;;;;;;;;7.31;93.30;97031.94;10444626;28;2877;-73
2024/01/28 13:48:47;;;;;;;;;;;;;;;7.43;88.63;97036.56;10445376;28;3340;-65
2024/01/28 13:53:50;;;;;;;;;;;;;;;7.39;89.82;97022.81;10438273;28;2883;-64
2024/01/28 13:58:53;;;;;;;;;;;;;;;7.50;79.82;97037.28;10438943;28;2840;-63
2024/01/28 14:03:55;;;;;;;;;;;;;;;7.45;81.49;97029.97;10440696;28;2858;-65
2024/01/28 14:08:58;;;;;;;;;;;;;;;7.35;80.88;97026.97;10442770;28;2929;-64
2024/01/28 14:14:00;;;;;;;;;;;;;;;7.43;74.74;97034.69;10441813;28;2775;-65
2024/01/28 14:19:03;;;;;;;;;;;;;;;7.36;78.26;97028.59;10445638;28;2810;-64
2024/01/28 14:24:08;;;;;;;;;;;;;;;7.35;75.79;97026.16;10444087;28;2802;-65
2024/01/28 14:29:11;;;;;;;;;;;;;;;7.39;76.90;97035.38;10441518;28;2886;-69
2024/01/28 14:34:14;;;;;;;;;;;;;;;7.31;82.01;97026.59;10450735;28;2857;-65
2024/01/28 14:39:16;;;;;;;;;;;;;;;7.30;88.91;97021.47;10441158;28;3061;-64
2024/01/28 14:44:19;;;;;;;;;;;;;;;7.16;95.38;97022.63;10439891;28;2925;-64
2024/01/28 14:49:21;;;;;;;;;;;;;;;7.15;95.78;97018.34;10440422;28;2972;-64
2024/01/28 14:54:24;;;;;;;;;;;;;;;7.11;97.83;97017.13;10443908;28;2864;-63
2024/01/28 14:59:27;;;;;;;;;;;;;;;7.05;100.00;97019.66;10449076;28;2850;-63
2024/01/28 15:04:30;;;;;;;;;;;;;;;6.93;100.00;97023.25;10442618;28;2898;-63
2024/01/28 15:09:32;;;;;;;;;;;;;;;6.86;100.00;97026.00;10448344;28;2819;-64
2024/01/28 15:14:35;;;;;;;;;;;;;;;6.68;100.00;97032.13;10443032;28;2911;-63
2024/01/28 15:19:38;;;;;;;;;;;;;;;6.54;100.00;97030.56;10448232;28;2839;-62
2024/01/28 15:24:42;;;;;;;;;;;;;;;6.51;100.00;97044.38;10446526;28;2908;-64
2024/01/28 15:29:46;;;;;;;;;;;;;;;6.43;100.00;97050.00;10449283;28;2988;-63
2024/01/28 15:34:48;;;;;;;;;;;;;;;6.16;100.00;97041.31;10439099;28;2908;-64
2024/01/28 15:39:51;;;;;;;;;;;;;;;6.14;100.00;97035.38;10444419;28;3052;-64
2024/01/28 15:44:55;;;;;;;;;;;;;;;5.85;100.00;97040.22;10443272;28;2822;-66
2024/01/28 15:49:59;;;;;;;;;;;;;;;5.46;100.00;97041.19;10439209;28;2841;-64
2024/01/28 15:55:01;;;;;;;;;;;;;;;5.34;100.00;97041.03;10444394;28;2926;-65
2024/01/28 16:00:04;;;;;;;;;;;;;;;5.12;100.00;97052.97;10438551;28;2806;-64
2024/01/28 16:05:10;;;;;;;;;;;;;;;5.25;100.00;97052.13;10434338;28;3066;-63
2024/01/28 16:10:13;;;;;;;;;;;;;;;5.17;100.00;97055.84;10423391;28;2846;-65
2024/01/28 16:15:16;;;;;;;;;;;;;;;5.09;100.00;97072.03;10434366;28;2912;-64
2024/01/28 16:20:18;;;;;;;;;;;;;;;5.01;100.00;97074.91;10440418;28;3115;-63
2024/01/28 16:25:21;;;;;;;;;;;;;;;4.83;100.00;97071.00;10449084;28;2538;-62
2024/01/28 16:30:24;;;;;;;;;;;;;;;4.71;100.00;97067.34;10460765;28;1491;-64
2024/01/28 16:35:27;;;;;;;;;;;;;;;4.57;100.00;97066.50;10443390;28;2914;-64
2024/01/28 16:40:29;;;;;;;;;;;;;;;4.42;100.00;97067.72;10438062;28;2878;-64
2024/01/28 16:45:32;;;;;;;;;;;;;;;4.14;100.00;97066.06;10431229;28;2921;-64
2024/01/28 16:50:36;;;;;;;;;;;;;;;4.09;100.00;97063.16;10432528;28;2853;-66
2024/01/28 16:55:38;;;;;;;;;;;;;;;3.87;100.00;97069.63;10430794;28;2964;-63
2024/01/28 17:00:41;;;;;;;;;;;;;;;3.83;100.00;97057.78;10433460;28;2818;-63
2024/01/28 17:05:43;;;;;;;;;;;;;;;3.60;100.00;97058.91;10434037;28;2842;-65
2024/01/28 17:10:46;;;;;;;;;;;;;;;3.44;100.00;97059.25;10441230;28;2891;-66
2024/01/28 17:15:48;;;;;;;;;;;;;;;3.17;100.00;97059.09;10436582;28;2891;-64
2024/01/28 17:20:51;;;;;;;;;;;;;;;3.18;100.00;97063.41;10444733;28;2917;-63
2024/01/28 17:25:54;;;;;;;;;;;;;;;3.08;100.00;97065.56;10435518;28;2837;-64
2024/01/28 17:30:57;;;;;;;;;;;;;;;2.80;100.00;97068.25;10436402;28;2880;-64
2024/01/28 17:36:01;;;;;;;;;;;;;;;2.62;100.00;97063.41;10438628;28;2929;-66
2024/01/28 17:41:04;;;;;;;;;;;;;;;2.64;100.00;97063.22;10432566;28;3030;-64
2024/01/28 17:46:07;;;;;;;;;;;;;;;2.65;100.00;97065.66;10436225;28;2852;-64
2024/01/28 17:51:09;;;;;;;;;;;;;;;2.70;100.00;97059.78;10436707;28;2809;-63
2024/01/28 17:56:12;;;;;;;;;;;;;;;2.72;100.00;97068.38;10434302;28;2869;-64
2024/01/28 18:01:15;;;;;;;;;;;;;;;2.62;100.00;97075.88;10432308;28;2935;-63
2024/01/28 18:06:18;;;;;;;;;;;;;;;2.51;100.00;97087.00;10437770;28;2857;-64
2024/01/28 18:11:21;;;;;;;;;;;;;;;2.53;100.00;97080.47;10418852;28;2934;-64
2024/01/28 18:16:24;;;;;;;;;;;;;;;2.49;100.00;97084.53;10428711;28;2933;-63
2024/01/28 18:21:27;;;;;;;;;;;;;;;2.40;100.00;97083.81;10432186;28;2942;-65
2024/01/28 18:26:30;;;;;;;;;;;;;;;2.26;100.00;97089.19;10420405;28;2947;-64
2024/01/28 18:31:32;;;;;;;;;;;;;;;2.23;100.00;97085.09;10451348;28;3114;-64
2024/01/28 18:36:35;;;;;;;;;;;;;;;2.20;100.00;97084.66;10456572;28;3092;-64
2024/01/28 18:41:38;;;;;;;;;;;;;;;2.14;100.00;97079.09;10462033;28;1986;-68
2024/01/28 18:46:41;;;;;;;;;;;;;;;2.11;100.00;97079.47;10454185;28;1691;-66
2024/01/28 18:51:43;;;;;;;;;;;;;;;1.95;100.00;97078.88;10455360;28;1544;-69
2024/01/28 18:56:46;;;;;;;;;;;;;;;1.94;100.00;97083.34;10447472;28;1548;-65
2024/01/28 19:01:49;;;;;;;;;;;;;;;1.90;100.00;97082.06;10455900;28;1981;-67
2024/01/28 19:06:51;;;;;;;;;;;;;;;1.79;100.00;97085.25;10455490;28;1486;-66
2024/01/28 19:11:54;;;;;;;;;;;;;;;1.77;100.00;97076.63;10456443;28;2766;-71
2024/01/28 19:16:57;;;;;;;;;;;;;;;1.88;100.00;97068.19;10448415;28;1912;-69
2024/01/28 19:22:00;;;;;;;;;;;;;;;1.61;100.00;97078.50;10456706;28;2285;-67
2024/01/28 19:27:03;;;;;;;;;;;;;;;1.47;100.00;97083.81;10453295;28;1741;-67
2024/01/28 19:32:06;;;;;;;;;;;;;;;1.41;100.00;97093.31;10460820;28;1562;-66
2024/01/28 19:37:08;;;;;;;;;;;;;;;1.41;100.00;97088.03;10452941;28;2954;-66
2024/01/28 19:42:11;;;;;;;;;;;;;;;1.49;100.00;97090.56;10453091;28;1999;-73
2024/01/28 19:47:14;;;;;;;;;;;;;;;1.35;100.00;97078.16;10465012;28;1595;-69
2024/01/28 19:52:17;;;;;;;;;;;;;;;1.21;100.00;97081.63;10453118;28;2588;-67
2024/01/28 19:57:20;;;;;;;;;;;;;;;1.16;100.00;97084.00;10456868;28;1628;-67
2024/01/28 20:02:23;;;;;;;;;;;;;;;1.16;100.00;97084.00;10448874;28;1973;-66
2024/01/28 20:07:25;;;;;;;;;;;;;;;1.22;100.00;97088.56;10452380;28;1625;-69
2024/01/28 20:12:28;;;;;;;;;;;;;;;1.14;100.00;97081.53;10451506;28;1485;-68
2024/01/28 20:17:31;;;;;;;;;;;;;;;1.07;100.00;97078.78;10449537;28;2014;-66
2024/01/28 20:22:33;;;;;;;;;;;;;;;1.00;100.00;97074.41;10450385;28;1910;-69
2024/01/28 20:27:36;;;;;;;;;;;;;;;0.96;100.00;97081.91;10447287;28;1546;-68
2024/01/28 20:32:39;;;;;;;;;;;;;;;0.96;100.00;97089.84;10450102;28;1273;-67
2024/01/28 20:37:41;;;;;;;;;;;;;;;1.07;100.00;97081.44;10451711;28;2930;-66
2024/01/28 20:42:44;;;;;;;;;;;;;;;1.08;100.00;97083.09;10445361;28;1914;-71
2024/01/28 20:47:46;;;;;;;;;;;;;;;1.02;100.00;97078.53;10444917;28;1550;-69
2024/01/28 20:52:49;;;;;;;;;;;;;;;0.96;100.00;97073.97;10449126;28;1525;-71
2024/01/28 20:57:51;;;;;;;;;;;;;;;0.93;100.00;97074.31;10446642;28;1475;-66
2024/01/28 21:02:54;;;;;;;;;;;;;;;1.04;100.00;97070.41;10450697;28;2021;-66
2024/01/28 21:07:56;;;;;;;;;;;;;;;1.05;100.00;97066.75;10450964;28;1647;-66
2024/01/28 21:12:59;;;;;;;;;;;;;;;1.05;100.00;97051.66;10455258;28;1350;-66
2024/01/28 21:18:01;;;;;;;;;;;;;;;0.94;100.00;97053.94;10454826;28;1527;-66
2024/01/28 21:23:05;;;;;;;;;;;;;;;0.91;100.00;97056.97;10435114;28;2806;-66
2024/01/28 21:28:07;;;;;;;;;;;;;;;0.84;100.00;97054.22;10438842;28;2830;-70
2024/01/28 21:33:10;;;;;;;;;;;;;;;0.84;100.00;97064.81;10441596;28;2890;-65
2024/01/28 21:38:13;;;;;;;;;;;;;;;0.67;100.00;97058.84;10433651;28;2924;-68
2024/01/28 21:43:15;;;;;;;;;;;;;;;0.71;100.00;97056.66;10435432;28;3379;-66
2024/01/28 21:48:18;;;;;;;;;;;;;;;0.63;100.00;97051.44;10430408;28;2913;-67
2024/01/28 21:53:20;;;;;;;;;;;;;;;0.50;100.00;97047.56;10435919;28;2841;-67
2024/01/28 21:58:23;;;;;;;;;;;;;;;0.52;100.00;97050.06;10430969;28;2837;-66
2024/01/28 22:03:25;;;;;;;;;;;;;;;0.71;100.00;97041.59;10442185;28;2905;-66
2024/01/28 22:08:28;;;;;;;;;;;;;;;0.62;100.00;97033.91;10448446;28;2897;-73
2024/01/28 22:13:30;;;;;;;;;;;;;;;0.65;100.00;97039.69;10446046;28;2862;-69
2024/01/28 22:18:35;;;;;;;;;;;;;;;0.66;100.00;97035.22;10436567;28;2909;-73
2024/01/28 22:23:38;;;;;;;;;;;;;;;0.55;100.00;97036.47;10439415;28;2964;-72
2024/01/28 22:28:41;;;;;;;;;;;;;;;0.42;100.00;97031.78;10442773;28;2900;-72
2024/01/28 22:33:43;;;;;;;;;;;;;;;0.41;100.00;97032.78;10443773;28;2923;-76
2024/01/28 22:38:46;;;;;;;;;;;;;;;0.35;100.00;97041.44;10440778;28;2918;-73
2024/01/28 22:43:49;;;;;;;;;;;;;;;0.28;100.00;97043.16;10439834;28;3040;-71
2024/01/28 22:48:52;;;;;;;;;;;;;;;0.24;100.00;97047.13;10442346;28;2822;-65
2024/01/28 22:53:55;;;;;;;;;;;;;;;0.17;100.00;97040.91;10442802;28;2915;-66
2024/01/28 22:58:58;;;;;;;;;;;;;;;0.11;100.00;97044.28;10443739;28;2803;-65
2024/01/28 23:04:01;;;;;;;;;;;;;;;0.04;100.00;97046.78;10440120;28;2927;-65
2024/01/28 23:09:03;;;;;;;;;;;;;;;0.12;100.00;97053.84;10444840;28;2989;-67
2024/01/28 23:14:06;;;;;;;;;;;;;;;0.18;100.00;97038.09;10441296;28;2961;-76
2024/01/28 23:19:08;;;;;;;;;;;;;;;0.23;100.00;97050.78;10443487;28;2934;-72
2024/01/28 23:24:11;;;;;;;;;;;;;;;0.17;100.00;97056.78;10448223;28;2884;-66
2024/01/28 23:29:14;;;;;;;;;;;;;;;0.10;100.00;97045.28;10445974;28;2949;-64
2024/01/28 23:34:17;;;;;;;;;;;;;;;0.02;100.00;97047.97;10452584;28;2806;-66
2024/01/28 23:39:20;;;;;;;;;;;;;;;-0.01;100.00;97028.81;10441887;28;3103;-66
2024/01/28 23:44:23;;;;;;;;;;;;;;;0.02;100.00;97032.13;10436736;28;3377;-65
2024/01/28 23:49:25;;;;;;;;;;;;;;;-0.03;100.00;97030.00;10439027;28;2869;-65
2024/01/28 23:54:28;;;;;;;;;;;;;;;-0.09;100.00;97013.03;10441928;28;3068;-65
2024/01/28 23:59:30;;;;;;;;;;;;;;;-0.11;100.00;97016.84;10424920;28;3049;-68
